Time;durP1;ratioP1;P1;durP2;ratioP2;P2;SDS_P1;SDS_P2;PMS_P1;PMS_P2;Temp;Humidity;BMP_temperature;BMP_pressure;BME280_temperature;BME280_humidity;BME280_pressure;Samples;Min_cycle;Max_cycle;Signal;HPM_P1;HPM_P2
2023/08/03 00:01:32;;;;;;;6.95;2.90;;;15.80;99.90;;;;;;5094173;28;20067;-75
2023/08/03 00:04:00;;;;;;;8.48;2.95;;;15.80;99.90;;;;;;5106187;28;20416;-75
2023/08/03 00:06:27;;;;;;;8.68;3.33;;;15.80;99.90;;;;;;5100269;28;20051;-76
2023/08/03 00:08:53;;;;;;;9.75;3.30;;;15.90;99.90;;;;;;5113034;28;20040;-75
2023/08/03 00:11:19;;;;;;;9.57;3.22;;;15.80;99.90;;;;;;5112901;28;20039;-75
2023/08/03 00:13:44;;;;;;;9.00;3.20;;;15.80;99.90;;;;;;5107707;28;20059;-75
2023/08/03 00:16:10;;;;;;;15.18;3.30;;;15.80;99.90;;;;;;5097905;28;20454;-75
2023/08/03 00:18:37;;;;;;;9.43;2.83;;;15.80;99.90;;;;;;5108353;28;20056;-76
2023/08/03 00:21:03;;;;;;;9.65;2.85;;;15.80;99.90;;;;;;5093859;28;20366;-76
2023/08/03 00:23:28;;;;;;;6.32;2.50;;;15.90;99.90;;;;;;5093880;28;20047;-75
2023/08/03 00:25:55;;;;;;;10.32;3.22;;;15.90;99.90;;;;;;5096722;28;20043;-76
2023/08/03 00:28:22;;;;;;;9.88;3.30;;;15.80;99.90;;;;;;5106708;28;20491;-77
2023/08/03 00:30:47;;;;;;;6.80;2.53;;;15.80;99.90;;;;;;5093550;28;20402;-75
2023/08/03 00:33:13;;;;;;;8.68;3.17;;;15.80;99.90;;;;;;5091932;28;20048;-76
2023/08/03 00:35:39;;;;;;;6.68;2.53;;;15.80;99.90;;;;;;5094218;28;20036;-76
2023/08/03 00:38:04;;;;;;;9.05;2.70;;;15.80;99.90;;;;;;5107249;28;20114;-76
2023/08/03 00:40:30;;;;;;;7.72;2.92;;;15.80;99.90;;;;;;5085663;28;20126;-76
2023/08/03 00:42:56;;;;;;;8.93;2.50;;;15.80;99.90;;;;;;5114091;28;20032;-76
2023/08/03 00:45:21;;;;;;;6.22;2.15;;;15.80;99.90;;;;;;5110568;28;20084;-75
2023/08/03 00:47:47;;;;;;;10.02;2.60;;;15.80;99.90;;;;;;5112487;28;20118;-76
2023/08/03 00:50:13;;;;;;;7.85;2.83;;;15.80;99.90;;;;;;5115119;28;20036;-77
2023/08/03 00:52:39;;;;;;;7.10;2.40;;;15.90;99.90;;;;;;5096193;28;20408;-76
2023/08/03 00:55:05;;;;;;;8.10;2.65;;;15.80;99.90;;;;;;5108572;28;20059;-76
2023/08/03 00:57:30;;;;;;;6.18;2.20;;;15.90;99.90;;;;;;5115186;28;20044;-75
2023/08/03 00:59:56;;;;;;;7.03;2.40;;;15.90;99.90;;;;;;5114480;28;20040;-76
2023/08/03 01:02:22;;;;;;;7.40;2.40;;;15.90;99.90;;;;;;5111683;28;20044;-74
2023/08/03 01:04:48;;;;;;;7.53;2.75;;;15.90;99.90;;;;;;5097574;28;20043;-75
2023/08/03 01:07:14;;;;;;;5.22;2.28;;;15.90;99.90;;;;;;5079153;28;20083;-76
2023/08/03 01:09:40;;;;;;;8.32;2.03;;;15.90;99.90;;;;;;5113246;28;20075;-76
2023/08/03 01:12:06;;;;;;;6.25;2.05;;;15.90;99.90;;;;;;5110007;28;20044;-76
2023/08/03 01:14:32;;;;;;;8.90;2.40;;;15.90;99.90;;;;;;5103691;28;20520;-76
2023/08/03 01:16:58;;;;;;;4.72;2.30;;;15.90;99.90;;;;;;5117364;28;20075;-75
2023/08/03 01:19:23;;;;;;;4.82;2.10;;;15.90;99.90;;;;;;5116541;27;20056;-76
2023/08/03 01:21:50;;;;;;;4.85;1.95;;;15.90;99.90;;;;;;5094759;28;20044;-75
2023/08/03 01:24:16;;;;;;;7.32;2.10;;;15.90;99.90;;;;;;5078732;28;20059;-75
2023/08/03 01:26:44;;;;;;;7.57;2.70;;;15.90;99.90;;;;;;5095591;28;20040;-76
2023/08/03 01:29:10;;;;;;;6.85;2.30;;;15.90;99.90;;;;;;5113256;28;20097;-75
2023/08/03 01:31:35;;;;;;;4.32;2.08;;;15.90;99.90;;;;;;5115616;28;20043;-75
2023/08/03 01:34:01;;;;;;;5.28;2.20;;;15.90;99.90;;;;;;5097869;28;20040;-75
2023/08/03 01:36:27;;;;;;;9.98;2.30;;;15.90;99.90;;;;;;5111232;28;20100;-75
2023/08/03 01:38:55;;;;;;;5.80;2.35;;;15.90;99.90;;;;;;5094957;28;20489;-75
2023/08/03 01:41:22;;;;;;;8.10;2.55;;;15.90;99.90;;;;;;5095770;28;20123;-74
2023/08/03 01:44:20;;;;;;;6.78;2.28;;;15.90;99.90;;;;;;5101608;28;20155;-75
2023/08/03 01:46:46;;;;;;;8.48;2.90;;;15.90;99.90;;;;;;5111530;28;20601;-75
2023/08/03 01:49:11;;;;;;;13.00;3.72;;;15.90;99.90;;;;;;5095116;28;20123;-75
2023/08/03 01:51:39;;;;;;;7.28;3.13;;;15.90;99.90;;;;;;5096645;28;20036;-76
2023/08/03 01:54:05;;;;;;;9.82;2.88;;;15.90;99.90;;;;;;5114962;28;20468;-76
2023/08/03 01:56:30;;;;;;;19.15;3.00;;;15.80;99.90;;;;;;5116962;28;20078;-76
2023/08/03 01:58:57;;;;;;;5.88;3.15;;;15.90;99.90;;;;;;5116202;28;20511;-76
2023/08/03 02:01:22;;;;;;;7.85;2.33;;;15.90;99.90;;;;;;5115534;28;20063;-76
2023/08/03 02:03:48;;;;;;;8.00;2.83;;;15.90;99.90;;;;;;5093887;28;20090;-76
2023/08/03 02:06:13;;;;;;;6.93;2.92;;;15.90;99.90;;;;;;5095096;28;20056;-75
2023/08/03 02:08:39;;;;;;;6.45;2.20;;;15.90;99.90;;;;;;5092594;28;20036;-76
2023/08/03 02:11:05;;;;;;;9.07;2.40;;;15.90;99.90;;;;;;5116555;28;20050;-75
2023/08/03 02:13:30;;;;;;;6.82;2.42;;;15.90;99.90;;;;;;5110089;28;20064;-76
2023/08/03 02:15:56;;;;;;;6.70;2.45;;;15.90;99.90;;;;;;5095988;28;20051;-75
2023/08/03 02:18:21;;;;;;;6.72;2.72;;;15.90;99.90;;;;;;5094637;28;20040;-76
2023/08/03 02:20:47;;;;;;;12.57;2.33;;;15.90;99.90;;;;;;5112100;28;20048;-79
2023/08/03 02:23:13;;;;;;;7.70;2.20;;;15.90;99.90;;;;;;5098644;28;20043;-76
2023/08/03 02:25:38;;;;;;;7.70;2.10;;;15.90;99.90;;;;;;5096005;28;20119;-75
2023/08/03 02:28:04;;;;;;;6.35;2.03;;;15.90;99.90;;;;;;5098180;28;20044;-75
2023/08/03 02:30:31;;;;;;;4.90;1.90;;;15.90;99.90;;;;;;5114740;28;20081;-75
2023/08/03 02:32:56;;;;;;;5.03;1.85;;;15.90;99.90;;;;;;5116206;28;20043;-75
2023/08/03 02:35:22;;;;;;;11.15;3.20;;;15.90;99.90;;;;;;5115952;28;20116;-74
2023/08/03 02:37:47;;;;;;;3.25;2.22;;;15.90;99.90;;;;;;5105412;28;20044;-75
2023/08/03 02:40:13;;;;;;;5.75;2.20;;;15.90;99.90;;;;;;5113103;28;20047;-75
2023/08/03 02:42:39;;;;;;;6.10;2.28;;;15.90;99.90;;;;;;5093069;28;20044;-75
2023/08/03 02:45:05;;;;;;;4.53;2.20;;;15.90;99.90;;;;;;5114250;28;20067;-75
2023/08/03 02:47:31;;;;;;;2.92;1.70;;;15.90;99.90;;;;;;5109893;28;20040;-75
2023/08/03 02:49:57;;;;;;;6.40;1.80;;;15.90;99.90;;;;;;5108233;28;20040;-75
2023/08/03 02:52:22;;;;;;;5.75;2.20;;;15.90;99.90;;;;;;5114741;28;20155;-76
2023/08/03 02:54:48;;;;;;;3.55;1.80;;;15.90;99.90;;;;;;5108444;28;20154;-76
2023/08/03 02:57:13;;;;;;;9.13;2.17;;;15.90;99.90;;;;;;5114292;28;20035;-76
2023/08/03 02:59:39;;;;;;;8.30;1.85;;;16.00;99.90;;;;;;5114148;28;20047;-75
2023/08/03 03:02:05;;;;;;;4.00;2.03;;;15.90;99.90;;;;;;5110597;28;20140;-75
2023/08/03 03:04:30;;;;;;;4.95;2.13;;;15.90;99.90;;;;;;5076904;28;20579;-75
2023/08/03 03:06:56;;;;;;;4.80;1.73;;;16.00;99.90;;;;;;5110541;28;20439;-75
2023/08/03 03:09:22;;;;;;;4.25;2.20;;;16.00;99.90;;;;;;5112868;28;20039;-75
2023/08/03 03:11:47;;;;;;;4.88;2.33;;;16.00;99.90;;;;;;5093354;28;20047;-75
2023/08/03 03:14:13;;;;;;;14.73;2.58;;;16.00;99.90;;;;;;5108108;28;20040;-76
2023/08/03 03:16:38;;;;;;;7.40;2.38;;;15.90;99.90;;;;;;5095062;28;20404;-75
2023/08/03 03:19:04;;;;;;;6.70;2.72;;;16.00;99.90;;;;;;5093332;28;20455;-75
2023/08/03 03:21:30;;;;;;;5.43;2.90;;;16.00;99.90;;;;;;5094697;28;20451;-76
2023/08/03 03:23:55;;;;;;;6.47;2.60;;;15.90;99.90;;;;;;5099331;28;20062;-76
2023/08/03 03:26:21;;;;;;;6.95;2.95;;;16.00;99.90;;;;;;5093667;28;20455;-75
2023/08/03 03:28:46;;;;;;;7.50;3.08;;;16.00;99.90;;;;;;5095133;28;20044;-75
2023/08/03 03:31:12;;;;;;;4.13;2.67;;;16.00;99.90;;;;;;5095028;28;20036;-74
2023/08/03 03:33:38;;;;;;;7.78;2.80;;;16.00;99.90;;;;;;5107210;28;20042;-75
2023/08/03 03:36:04;;;;;;;3.92;2.90;;;16.00;99.90;;;;;;5092110;28;20047;-75
2023/08/03 03:38:29;;;;;;;5.88;3.00;;;16.00;99.90;;;;;;5094371;28;20032;-75
2023/08/03 03:40:55;;;;;;;6.57;3.40;;;16.00;99.90;;;;;;5095007;28;20406;-76
2023/08/03 03:43:20;;;;;;;7.78;3.75;;;16.00;99.90;;;;;;5102600;28;20390;-75
2023/08/03 03:45:46;;;;;;;12.90;3.83;;;16.00;99.90;;;;;;5096620;28;20039;-75
2023/08/03 03:48:12;;;;;;;6.70;3.25;;;16.00;99.90;;;;;;5094506;28;20047;-75
2023/08/03 03:50:37;;;;;;;9.80;3.65;;;16.00;99.90;;;;;;5094652;28;20127;-75
2023/08/03 03:53:03;;;;;;;6.65;3.47;;;16.00;99.90;;;;;;5100518;28;20039;-75
2023/08/03 03:55:29;;;;;;;6.43;4.13;;;16.00;99.90;;;;;;5103792;28;20547;-75
2023/08/03 03:57:55;;;;;;;8.55;4.10;;;16.00;99.90;;;;;;5096358;28;20036;-75
2023/08/03 04:00:21;;;;;;;9.70;4.22;;;16.00;99.90;;;;;;5111633;28;20044;-75
2023/08/03 04:02:49;;;;;;;8.35;3.78;;;16.00;99.90;;;;;;5114793;28;20036;-75
2023/08/03 04:05:14;;;;;;;13.60;4.85;;;16.00;99.90;;;;;;5113080;28;20096;-76
2023/08/03 04:07:40;;;;;;;7.05;4.57;;;16.00;99.90;;;;;;5114688;28;20043;-76
2023/08/03 04:10:06;;;;;;;8.82;4.30;;;16.00;99.90;;;;;;5113928;28;20044;-76
2023/08/03 04:12:31;;;;;;;8.23;4.72;;;16.00;99.90;;;;;;5079866;28;20047;-74
2023/08/03 04:14:57;;;;;;;7.82;4.65;;;16.00;99.90;;;;;;5109357;28;20032;-74
2023/08/03 04:17:23;;;;;;;10.43;5.63;;;16.00;99.90;;;;;;5093933;28;20048;-75
2023/08/03 04:19:48;;;;;;;9.70;5.00;;;16.00;99.90;;;;;;5101092;28;20052;-75
2023/08/03 04:22:14;;;;;;;12.63;5.75;;;16.00;99.90;;;;;;5111599;28;20066;-75
2023/08/03 04:24:40;;;;;;;19.38;6.72;;;16.00;99.90;;;;;;5107728;28;20048;-75
2023/08/03 04:27:06;;;;;;;20.58;6.35;;;16.10;99.90;;;;;;5092652;28;20048;-75
2023/08/03 04:29:31;;;;;;;12.05;6.25;;;16.10;99.90;;;;;;5106520;28;20501;-74
2023/08/03 04:31:58;;;;;;;8.48;6.32;;;16.10;99.90;;;;;;5098743;28;20090;-76
2023/08/03 04:34:24;;;;;;;10.33;6.30;;;16.10;99.90;;;;;;5093690;28;20504;-75
2023/08/03 04:36:50;;;;;;;20.52;6.68;;;16.10;99.90;;;;;;5093884;28;20044;-75
2023/08/03 04:39:15;;;;;;;16.30;7.13;;;16.10;99.90;;;;;;5102258;28;20051;-75
2023/08/03 04:41:41;;;;;;;17.83;6.35;;;16.10;99.90;;;;;;5112851;28;20044;-75
2023/08/03 04:44:06;;;;;;;9.50;6.47;;;16.20;99.90;;;;;;5111693;28;20048;-75
2023/08/03 04:46:32;;;;;;;11.07;6.10;;;16.20;99.90;;;;;;5111917;28;20044;-76
2023/08/03 04:48:58;;;;;;;10.65;7.07;;;16.20;99.90;;;;;;5112547;28;20036;-75
2023/08/03 04:51:24;;;;;;;13.60;6.70;;;16.20;99.90;;;;;;5112762;28;20516;-74
2023/08/03 04:53:49;;;;;;;12.90;6.82;;;16.20;99.90;;;;;;5103415;28;20040;-75
2023/08/03 04:56:15;;;;;;;12.63;6.55;;;16.20;99.90;;;;;;5098561;28;20450;-75
2023/08/03 04:58:40;;;;;;;14.95;6.28;;;16.30;99.90;;;;;;5113060;28;20044;-75
2023/08/03 05:01:06;;;;;;;15.82;6.65;;;16.20;99.90;;;;;;5112857;28;20040;-75
2023/08/03 05:03:32;;;;;;;15.75;6.88;;;16.20;99.90;;;;;;5108593;28;20047;-75
2023/08/03 05:05:57;;;;;;;13.13;6.63;;;16.20;99.90;;;;;;5093445;28;20040;-76
2023/08/03 05:08:24;;;;;;;13.50;6.65;;;16.30;99.90;;;;;;5093186;28;20405;-76
2023/08/03 05:10:50;;;;;;;10.97;6.30;;;16.30;99.90;;;;;;5101496;28;20048;-76
2023/08/03 05:13:17;;;;;;;12.93;6.07;;;16.30;99.90;;;;;;5107892;28;20119;-77
2023/08/03 05:15:44;;;;;;;12.85;6.30;;;16.30;99.90;;;;;;5104982;28;20101;-75
2023/08/03 05:18:10;;;;;;;16.90;7.00;;;16.30;99.90;;;;;;5093327;28;20051;-76
2023/08/03 05:20:35;;;;;;;13.15;6.22;;;16.30;99.90;;;;;;5097611;28;20794;-76
2023/08/03 05:23:02;;;;;;;13.27;6.75;;;16.30;99.90;;;;;;5113643;28;20044;-75
2023/08/03 05:25:28;;;;;;;11.93;6.45;;;16.40;99.90;;;;;;5100275;28;20091;-76
2023/08/03 05:27:54;;;;;;;13.75;7.15;;;16.30;99.90;;;;;;5092126;28;20040;-76
2023/08/03 05:30:20;;;;;;;17.25;8.27;;;16.30;99.90;;;;;;5098436;28;20085;-75
2023/08/03 05:32:46;;;;;;;20.27;7.65;;;16.40;99.90;;;;;;5092875;28;20039;-75
2023/08/03 05:35:12;;;;;;;11.65;7.35;;;16.40;99.90;;;;;;5093729;28;20040;-75
2023/08/03 05:37:38;;;;;;;17.08;7.50;;;16.40;99.90;;;;;;5078333;28;20087;-76
2023/08/03 05:40:04;;;;;;;12.27;7.05;;;16.30;99.90;;;;;;5103640;28;20473;-76
2023/08/03 05:42:38;;;;;;;14.20;7.82;;;16.30;99.90;;;;;;5116116;28;20118;-75
2023/08/03 05:45:13;;;;;;;10.27;6.68;;;16.40;99.90;;;;;;5114462;28;20047;-75
2023/08/03 05:47:39;;;;;;;16.08;7.13;;;16.40;99.90;;;;;;5117326;28;20099;-76
2023/08/03 05:50:13;;;;;;;18.50;7.25;;;16.40;99.90;;;;;;5114212;28;20139;-77
2023/08/03 05:52:39;;;;;;;12.48;7.43;;;16.40;99.90;;;;;;5121493;28;20054;-77
2023/08/03 05:55:11;;;;;;;11.00;7.80;;;16.50;99.90;;;;;;5124316;28;20073;-77
2023/08/03 05:57:36;;;;;;;12.70;7.13;;;16.50;99.90;;;;;;5116231;28;20046;-77
2023/08/03 06:00:05;;;;;;;9.18;6.65;;;16.60;99.90;;;;;;5115611;28;20401;-76
2023/08/03 06:02:35;;;;;;;12.18;7.15;;;16.70;99.90;;;;;;5111505;28;20458;-77
2023/08/03 06:05:01;;;;;;;12.85;6.38;;;16.80;99.90;;;;;;5096127;28;20398;-77
2023/08/03 06:07:28;;;;;;;10.90;6.53;;;16.80;99.90;;;;;;5095776;28;20497;-77
2023/08/03 06:09:54;;;;;;;11.68;6.45;;;16.80;99.90;;;;;;5100332;28;20046;-78
2023/08/03 06:12:19;;;;;;;9.15;6.05;;;16.80;99.90;;;;;;5116494;28;20036;-78
2023/08/03 06:14:45;;;;;;;10.18;6.15;;;16.80;99.90;;;;;;5115674;28;20512;-78
2023/08/03 06:17:11;;;;;;;8.77;6.13;;;16.80;99.90;;;;;;5117157;28;20047;-78
2023/08/03 06:19:36;;;;;;;9.07;6.13;;;16.80;99.90;;;;;;5114809;28;20048;-78
2023/08/03 06:22:17;;;;;;;9.90;6.03;;;16.80;99.90;;;;;;5117973;28;20043;-78
2023/08/03 06:24:43;;;;;;;10.20;6.55;;;16.90;99.90;;;;;;5098624;28;20397;-77
2023/08/03 06:27:11;;;;;;;9.90;6.53;;;17.10;99.90;;;;;;5098203;28;20040;-77
2023/08/03 06:29:38;;;;;;;9.82;5.82;;;17.10;99.90;;;;;;5096449;28;20078;-77
2023/08/03 06:32:05;;;;;;;7.15;5.32;;;17.20;99.90;;;;;;5116945;28;20100;-79
2023/08/03 06:34:33;;;;;;;8.70;5.78;;;17.10;99.90;;;;;;5097781;28;20478;-77
2023/08/03 06:36:59;;;;;;;6.90;5.20;;;17.10;99.90;;;;;;5096546;28;20513;-77
2023/08/03 06:39:25;;;;;;;6.88;4.68;;;17.10;99.90;;;;;;5097754;28;20043;-77
2023/08/03 06:41:53;;;;;;;6.05;4.85;;;17.10;99.90;;;;;;5116243;28;20385;-77
2023/08/03 06:44:19;;;;;;;6.45;4.45;;;17.10;99.90;;;;;;5108370;28;20043;-78
2023/08/03 06:46:46;;;;;;;6.53;4.53;;;17.10;99.90;;;;;;5113379;28;20058;-78
2023/08/03 06:49:11;;;;;;;10.15;5.15;;;17.10;99.90;;;;;;5117488;28;20046;-79
2023/08/03 06:51:39;;;;;;;9.10;5.20;;;17.10;99.90;;;;;;5107211;28;20048;-77
2023/08/03 06:54:05;;;;;;;7.13;4.60;;;17.10;99.90;;;;;;5095622;28;20070;-77
2023/08/03 06:56:31;;;;;;;6.38;4.53;;;17.20;99.90;;;;;;5095593;28;20048;-77
2023/08/03 06:58:57;;;;;;;12.13;5.47;;;17.20;99.90;;;;;;5095146;28;20056;-77
2023/08/03 07:01:23;;;;;;;7.25;3.80;;;17.20;99.90;;;;;;5109272;28;20039;-77
2023/08/03 07:03:50;;;;;;;5.18;4.15;;;17.20;99.90;;;;;;5115814;28;20040;-76
2023/08/03 07:06:15;;;;;;;6.28;3.67;;;17.20;99.90;;;;;;5114654;28;20405;-76
2023/08/03 07:08:41;;;;;;;5.75;4.10;;;17.10;99.90;;;;;;5109900;28;20074;-77
2023/08/03 07:11:08;;;;;;;8.80;4.07;;;17.20;99.90;;;;;;5109422;28;20127;-78
2023/08/03 07:13:34;;;;;;;8.03;5.00;;;17.30;99.90;;;;;;5115921;27;20432;-78
2023/08/03 07:16:07;;;;;;;4.10;3.08;;;17.60;99.90;;;;;;5119462;28;20298;-78
2023/08/03 07:18:34;;;;;;;7.25;3.17;;;17.80;99.90;;;;;;5116198;28;20056;-77
2023/08/03 07:21:06;;;;;;;4.87;2.80;;;18.10;99.90;;;;;;5110592;28;20055;-77
2023/08/03 07:23:33;;;;;;;7.80;2.85;;;18.20;99.90;;;;;;5098544;28;20092;-78
2023/08/03 07:25:59;;;;;;;5.53;2.47;;;18.20;99.90;;;;;;5096274;28;20526;-77
2023/08/03 07:28:24;;;;;;;7.68;2.75;;;18.10;99.90;;;;;;5096335;28;20039;-77
2023/08/03 07:30:50;;;;;;;5.28;2.70;;;18.00;99.90;;;;;;5095254;28;20047;-77
2023/08/03 07:33:16;;;;;;;5.63;2.42;;;18.00;99.90;;;;;;5094949;28;20375;-77
2023/08/03 07:35:41;;;;;;;4.88;2.00;;;18.00;99.90;;;;;;5094904;28;20109;-76
2023/08/03 07:38:07;;;;;;;5.32;2.08;;;18.00;99.90;;;;;;5093127;28;20046;-77
2023/08/03 07:40:33;;;;;;;7.18;2.00;;;18.20;99.90;;;;;;5102359;28;20489;-77
2023/08/03 07:42:59;;;;;;;3.38;1.80;;;18.20;99.90;;;;;;5095057;28;20123;-77
2023/08/03 07:45:24;;;;;;;6.85;1.80;;;18.20;99.90;;;;;;5099268;28;20048;-78
2023/08/03 07:47:51;;;;;;;5.82;2.00;;;18.30;99.90;;;;;;5115917;28;20517;-77
2023/08/03 07:50:17;;;;;;;5.33;1.90;;;18.40;99.90;;;;;;5110977;28;20082;-78
2023/08/03 07:52:43;;;;;;;3.47;1.58;;;18.50;99.90;;;;;;5096420;28;20072;-78
2023/08/03 07:55:08;;;;;;;7.68;1.65;;;18.70;99.90;;;;;;5095740;28;20044;-77
2023/08/03 07:57:35;;;;;;;6.55;1.50;;;18.80;99.90;;;;;;5095218;28;20042;-77
2023/08/03 08:00:03;;;;;;;10.40;1.75;;;18.80;99.90;;;;;;5096909;28;20067;-77
2023/08/03 08:02:29;;;;;;;;;;;18.90;99.90;;;;;;5117405;28;20100;-77
2023/08/03 08:04:54;;;;;;;7.30;1.98;;;19.00;99.90;;;;;;5115085;28;20331;-75
2023/08/03 08:07:20;;;;;;;6.75;1.88;;;19.10;99.90;;;;;;5094842;28;20036;-78
2023/08/03 08:09:46;;;;;;;8.65;1.85;;;19.20;99.90;;;;;;5093150;28;20088;-77
2023/08/03 08:12:11;;;;;;;4.63;1.40;;;19.20;99.90;;;;;;5098368;28;20044;-75
2023/08/03 08:14:37;;;;;;;4.97;1.65;;;19.10;99.90;;;;;;5094045;28;20138;-77
2023/08/03 08:17:03;;;;;;;9.75;1.88;;;19.00;99.90;;;;;;5113281;28;20047;-76
2023/08/03 08:19:30;;;;;;;8.43;1.65;;;19.20;99.90;;;;;;5113141;28;20048;-76
2023/08/03 08:21:56;;;;;;;7.05;1.70;;;19.30;99.90;;;;;;5112608;28;20089;-76
2023/08/03 08:24:21;;;;;;;4.03;1.80;;;19.40;99.90;;;;;;5093996;28;20082;-76
2023/08/03 08:26:47;;;;;;;10.45;1.80;;;19.40;99.90;;;;;;5093808;28;20047;-76
2023/08/03 08:29:13;;;;;;;5.03;1.60;;;19.20;99.90;;;;;;5099479;28;20044;-77
2023/08/03 08:31:38;;;;;;;5.70;1.80;;;19.10;99.90;;;;;;5108215;28;20035;-76
2023/08/03 08:34:04;;;;;;;7.07;1.63;;;19.00;99.90;;;;;;5095747;28;20084;-77
2023/08/03 08:36:30;;;;;;;5.88;1.42;;;18.90;99.90;;;;;;5092358;28;20127;-78
2023/08/03 08:38:56;;;;;;;4.75;1.40;;;18.90;99.90;;;;;;5103023;28;20028;-76
2023/08/03 08:41:22;;;;;;;7.93;1.45;;;19.10;99.90;;;;;;5112863;28;20043;-77
2023/08/03 08:43:47;;;;;;;6.90;1.80;;;19.30;99.90;;;;;;5113795;28;20044;-76
2023/08/03 08:46:13;;;;;;;5.18;1.55;;;19.40;99.90;;;;;;5090947;28;20040;-75
2023/08/03 08:48:39;;;;;;;5.38;1.70;;;19.60;99.90;;;;;;5092237;28;20044;-76
2023/08/03 08:51:05;;;;;;;6.15;1.50;;;19.60;99.90;;;;;;5093086;28;20051;-76
2023/08/03 08:53:31;;;;;;;6.57;2.00;;;19.60;99.90;;;;;;5092335;28;20044;-76
2023/08/03 08:55:57;;;;;;;8.10;1.50;;;19.40;99.90;;;;;;5104536;28;20052;-76
2023/08/03 08:58:24;;;;;;;8.43;2.08;;;19.30;99.90;;;;;;5110592;28;20068;-76
2023/08/03 09:00:50;;;;;;;6.88;1.42;;;19.30;99.90;;;;;;5100762;28;20048;-76
2023/08/03 09:03:16;;;;;;;4.60;1.48;;;19.40;99.90;;;;;;5113752;28;20039;-76
2023/08/03 09:05:41;;;;;;;7.20;1.95;;;19.60;99.90;;;;;;5102359;28;20048;-76
2023/08/03 09:08:11;;;;;;;7.97;1.70;;;19.80;99.90;;;;;;5092256;28;20043;-76
2023/08/03 09:10:53;;;;;;;5.30;1.60;;;20.10;99.90;;;;;;5094758;28;20043;-76
2023/08/03 09:13:26;;;;;;;8.13;1.83;;;20.30;99.90;;;;;;5097680;28;20036;-76
2023/08/03 09:15:52;;;;;;;9.73;2.15;;;20.20;99.90;;;;;;5106432;28;20495;-76
2023/08/03 09:18:20;;;;;;;9.45;2.47;;;20.20;99.90;;;;;;5114477;28;20035;-75
2023/08/03 09:20:45;;;;;;;9.50;2.05;;;20.10;99.90;;;;;;5116167;28;20104;-76
2023/08/03 09:23:30;;;;;;;7.07;1.77;;;20.00;99.90;;;;;;5100645;28;20482;-76
2023/08/03 09:25:55;;;;;;;9.23;2.50;;;20.00;99.90;;;;;;5095907;28;20490;-76
2023/08/03 09:28:37;;;;;;;4.68;1.60;;;20.00;99.90;;;;;;5112637;28;20051;-77
2023/08/03 09:31:04;;;;;;;9.63;2.60;;;20.10;99.90;;;;;;5110714;28;20043;-76
2023/08/03 09:33:31;;;;;;;10.32;2.15;;;20.20;99.90;;;;;;5117481;28;20063;-76
2023/08/03 09:36:11;;;;;;;10.02;2.33;;;20.50;99.90;;;;;;5116146;28;20051;-76
2023/08/03 09:38:40;;;;;;;8.90;2.22;;;20.60;99.90;;;;;;5102447;28;20119;-76
2023/08/03 09:41:06;;;;;;;9.38;2.30;;;20.50;99.90;;;;;;5095850;28;20048;-76
2023/08/03 09:43:33;;;;;;;9.93;2.10;;;20.40;99.90;;;;;;5095741;28;20096;-76
2023/08/03 09:45:59;;;;;;;5.78;1.90;;;20.30;99.90;;;;;;5103532;28;20389;-77
2023/08/03 09:48:26;;;;;;;8.98;2.47;;;20.10;99.90;;;;;;5117490;28;20043;-76
2023/08/03 09:50:54;;;;;;;8.73;2.30;;;19.90;99.90;;;;;;5116915;28;20047;-77
2023/08/03 09:53:35;;;;;;;10.90;2.47;;;20.00;99.90;;;;;;5116630;28;20047;-77
2023/08/03 09:56:01;;;;;;;11.55;2.15;;;20.20;99.90;;;;;;5116628;28;20503;-76
2023/08/03 09:58:52;;;;;;;9.07;2.05;;;20.50;99.90;;;;;;5116903;28;20039;-77
2023/08/03 10:01:24;;;;;;;7.63;1.95;;;20.80;99.90;;;;;;5100775;28;20543;-77
2023/08/03 10:04:04;;;;;;;10.07;2.03;;;21.10;99.90;;;;;;5102815;28;20058;-77
2023/08/03 10:06:34;;;;;;;4.95;1.52;;;21.20;99.90;;;;;;5105935;28;20485;-77
2023/08/03 10:09:05;;;;;;;12.05;2.60;;;21.20;99.90;;;;;;5116143;28;20470;-77
2023/08/03 10:11:36;;;;;;;12.30;2.20;;;21.30;99.90;;;;;;5116874;28;20039;-77
2023/08/03 10:14:05;;;;;;;6.30;1.90;;;21.40;99.90;;;;;;5096558;28;20391;-77
2023/08/03 10:16:34;;;;;;;10.93;2.97;;;21.30;99.90;;;;;;5105300;28;20435;-76
2023/08/03 10:19:02;;;;;;;7.38;1.90;;;21.10;99.90;;;;;;5115338;28;20070;-75
2023/08/03 10:21:28;;;;;;;;;;;21.00;99.90;;;;;;5096024;28;20387;-76
2023/08/03 10:24:16;;;;;;;9.30;2.67;;;20.90;99.90;;;;;;5089039;28;19998;-76
2023/08/03 10:26:43;;;;;;;9.98;3.03;;;20.60;99.90;;;;;;5114823;28;20100;-75
2023/08/03 10:29:09;;;;;;;17.95;3.80;;;20.30;99.90;;;;;;5104605;28;20093;-79
2023/08/03 10:31:53;;;;;;;13.85;3.13;;;19.70;99.90;;;;;;5105709;28;20066;-77
2023/08/03 10:34:26;;;;;;;24.60;6.13;;;19.10;99.90;;;;;;5099871;28;20055;-77
2023/08/03 10:36:55;;;;;;;18.48;4.15;;;18.80;99.90;;;;;;5107613;28;20062;-76
2023/08/03 10:39:41;;;;;;;13.30;3.70;;;18.60;99.90;;;;;;5098974;28;20452;-78
2023/08/03 10:42:21;;;;;;;16.30;4.13;;;18.40;99.90;;;;;;5103183;28;20378;-77
2023/08/03 10:44:47;;;;;;;11.55;4.43;;;18.40;99.90;;;;;;5116032;28;20043;-77
2023/08/03 10:47:43;;;;;;;28.92;5.47;;;18.30;99.90;;;;;;5115187;28;20046;-77
2023/08/03 10:50:08;;;;;;;16.10;4.95;;;18.40;99.90;;;;;;5085948;28;20069;-77
2023/08/03 10:52:37;;;;;;;18.88;3.90;;;18.50;99.90;;;;;;5111535;28;20439;-77
2023/08/03 10:55:25;;;;;;;13.75;3.97;;;18.60;99.90;;;;;;5110358;28;20478;-77
2023/08/03 10:57:51;;;;;;;12.98;3.55;;;18.70;99.90;;;;;;5097430;28;20048;-78
2023/08/03 11:00:17;;;;;;;15.57;3.92;;;18.70;99.90;;;;;;5098791;28;20074;-78
2023/08/03 11:02:43;;;;;;;14.48;4.07;;;18.70;99.90;;;;;;5115093;28;20036;-79
2023/08/03 11:05:11;;;;;;;11.25;3.83;;;18.80;99.90;;;;;;5127858;28;20068;-79
2023/08/03 11:07:39;;;;;;;14.80;3.95;;;18.70;99.90;;;;;;5111308;28;20036;-77
2023/08/03 11:10:09;;;;;;;14.13;3.63;;;18.80;99.90;;;;;;5100740;28;20417;-78
2023/08/03 11:12:36;;;;;;;9.85;2.83;;;18.70;99.90;;;;;;5113892;28;20036;-80
2023/08/03 11:15:02;;;;;;;9.15;2.78;;;18.70;99.90;;;;;;5126005;28;20047;-80
2023/08/03 11:17:35;;;;;;;10.77;2.80;;;18.90;99.90;;;;;;5126535;28;20052;-80
2023/08/03 11:20:04;;;;;;;9.50;2.10;;;19.10;99.90;;;;;;5123065;28;20081;-80
2023/08/03 11:22:31;;;;;;;8.98;2.15;;;19.40;99.90;;;;;;5123581;28;20051;-78
2023/08/03 11:24:59;;;;;;;7.28;1.80;;;19.50;99.90;;;;;;5118268;28;20052;-77
2023/08/03 11:27:24;;;;;;;;;;;19.50;99.90;;;;;;5098751;28;20370;-78
2023/08/03 11:29:52;;;;;;;6.07;1.70;;;19.50;99.90;;;;;;5097728;28;19969;-77
2023/08/03 11:32:22;;;;;;;4.00;1.48;;;19.50;99.90;;;;;;5114811;28;20032;-78
2023/08/03 11:34:47;;;;;;;8.57;2.03;;;19.50;99.90;;;;;;5109716;28;20044;-79
2023/08/03 11:37:13;;;;;;;7.45;1.73;;;19.70;99.90;;;;;;5097300;28;20040;-78
2023/08/03 11:39:40;;;;;;;7.40;2.00;;;20.00;99.90;;;;;;5096100;28;20040;-79
2023/08/03 11:42:07;;;;;;;9.15;1.45;;;20.00;99.90;;;;;;5104214;28;20039;-77
2023/08/03 11:44:39;;;;;;;8.50;2.28;;;19.90;99.90;;;;;;5111394;28;20067;-77
2023/08/03 11:47:07;;;;;;;6.72;1.60;;;20.00;99.90;;;;;;5103157;28;20053;-78
2023/08/03 11:49:33;;;;;;;2.97;1.30;;;20.30;99.90;;;;;;5113622;28;20061;-78
2023/08/03 11:52:02;;;;;;;6.22;1.35;;;20.70;99.90;;;;;;5109199;28;20040;-77
2023/08/03 11:54:37;;;;;;;6.85;1.60;;;20.90;99.90;;;;;;5096356;28;20044;-77
2023/08/03 11:59:49;;;;;;;6.10;1.42;;;21.30;99.90;;;;;;5109555;28;20075;-77
2023/08/03 12:02:15;;;;;;;4.47;1.10;;;21.40;99.90;;;;;;5105248;28;20062;-77
2023/08/03 12:04:41;;;;;;;4.78;1.50;;;21.30;99.90;;;;;;5110874;28;20040;-76
2023/08/03 12:07:07;;;;;;;4.40;1.80;;;21.20;99.90;;;;;;5114232;28;20097;-78
2023/08/03 12:09:38;;;;;;;4.93;1.70;;;21.10;99.90;;;;;;5109883;28;20044;-77
2023/08/03 12:12:06;;;;;;;7.32;1.92;;;21.10;99.90;;;;;;5094619;28;20051;-76
2023/08/03 12:14:32;;;;;;;6.95;2.10;;;21.10;99.90;;;;;;5084516;28;20607;-77
2023/08/03 12:16:58;;;;;;;5.38;2.17;;;21.20;99.90;;;;;;5107794;28;20115;-77
2023/08/03 12:19:27;;;;;;;8.27;2.22;;;21.30;99.90;;;;;;5093294;28;20052;-77
2023/08/03 12:21:53;;;;;;;8.52;2.30;;;21.50;99.90;;;;;;5095550;28;20394;-77
2023/08/03 12:24:19;;;;;;;7.95;2.20;;;21.60;99.90;;;;;;5083425;28;20038;-77
2023/08/03 12:26:44;;;;;;;11.77;2.35;;;21.40;99.90;;;;;;5116511;28;20043;-76
2023/08/03 12:29:10;;;;;;;7.45;2.00;;;20.90;99.90;;;;;;5116271;28;20082;-76
2023/08/03 12:31:36;;;;;;;7.57;2.50;;;20.50;99.90;;;;;;5113527;28;20539;-76
2023/08/03 12:34:02;;;;;;;11.52;2.78;;;20.10;99.90;;;;;;5108113;28;20098;-76
2023/08/03 12:36:27;;;;;;;8.65;2.25;;;19.80;99.90;;;;;;5096795;28;20040;-75
2023/08/03 12:38:53;;;;;;;11.85;1.83;;;19.60;99.90;;;;;;5096645;28;20505;-75
2023/08/03 12:41:19;;;;;;;9.90;2.38;;;19.40;99.90;;;;;;5101941;28;20074;-76
2023/08/03 12:43:46;;;;;;;7.97;1.98;;;19.40;99.90;;;;;;5114710;28;20039;-75
2023/08/03 12:46:12;;;;;;;6.75;1.92;;;19.40;99.90;;;;;;5113336;28;20036;-76
2023/08/03 12:48:38;;;;;;;7.85;2.13;;;19.30;99.90;;;;;;5110634;28;20051;-75